Time;durP1;ratioP1;P1;durP2;ratioP2;P2;SDS_P1;SDS_P2;PMS_P1;PMS_P2;Temp;Humidity;BMP_temperature;BMP_pressure;BME280_temperature;BME280_humidity;BME280_pressure;Samples;Min_cycle;Max_cycle;Signal;HPM_P1;HPM_P2
2021/06/14 00:01:15;;;;;;;9.95;3.30;;;;;;;12.40;68.22;98679.52;1759057;80;21036;-77
2021/06/14 00:03:41;;;;;;;8.50;3.27;;;;;;;12.39;68.44;98682.79;1787835;80;21395;-77
2021/06/14 00:06:08;;;;;;;6.25;2.80;;;;;;;12.34;68.68;98675.18;1787852;80;21015;-77
2021/06/14 00:08:34;;;;;;;8.10;3.65;;;;;;;12.36;68.71;98679.23;1787720;80;21143;-77
2021/06/14 00:11:00;;;;;;;10.85;3.83;;;;;;;12.38;68.10;98684.39;1787926;79;21060;-77
2021/06/14 00:13:28;;;;;;;8.05;3.80;;;;;;;12.35;68.54;98674.90;1787643;80;20934;-77
2021/06/14 00:15:54;;;;;;;8.80;3.37;;;;;;;12.24;69.13;98671.94;1787873;80;21021;-78
2021/06/14 00:18:20;;;;;;;8.48;3.80;;;;;;;12.22;68.78;98668.69;1773148;80;21009;-78
2021/06/14 00:20:55;;;;;;;10.85;3.83;;;;;;;12.17;69.62;98669.23;1788010;80;21878;-78
2021/06/14 00:23:23;;;;;;;9.08;3.37;;;;;;;12.16;69.71;98668.42;1787445;80;20966;-77
2021/06/14 00:25:50;;;;;;;7.85;3.33;;;;;;;12.17;70.27;98667.87;1787825;80;21043;-77
2021/06/14 00:28:16;;;;;;;9.15;3.87;;;;;;;12.16;69.51;98673.85;1787517;80;20942;-77
2021/06/14 00:30:44;;;;;;;8.33;3.40;;;;;;;12.13;70.29;98667.08;1765133;81;21032;-77
2021/06/14 00:33:11;;;;;;;7.08;3.50;;;;;;;12.11;70.43;98669.77;1787761;80;21831;-77
2021/06/14 00:35:42;;;;;;;11.33;3.98;;;;;;;12.15;69.75;98660.00;1786837;79;21418;-77
2021/06/14 00:38:08;;;;;;;9.10;3.87;;;;;;;12.15;70.64;98660.00;1767855;80;20977;-77
2021/06/14 00:40:34;;;;;;;9.50;3.67;;;;;;;12.12;70.48;98655.09;1799304;79;21075;-77
2021/06/14 00:43:01;;;;;;;11.83;4.65;;;;;;;12.12;69.71;98662.70;1753025;80;20953;-77
2021/06/14 00:45:30;;;;;;;7.33;3.77;;;;;;;12.10;70.75;98670.87;1798605;79;21154;-77
2021/06/14 00:47:57;;;;;;;16.52;5.67;;;;;;;12.00;70.57;98664.09;1767967;80;20898;-77
2021/06/14 00:50:45;;;;;;;8.03;3.55;;;;;;;11.99;70.66;98669.26;1799403;79;20996;-77
2021/06/14 00:53:18;;;;;;;12.60;4.90;;;;;;;11.98;70.24;98658.13;1767944;80;20933;-77
2021/06/14 00:55:45;;;;;;;9.48;4.03;;;;;;;12.04;69.90;98662.45;1799327;79;20984;-77
2021/06/14 00:58:11;;;;;;;7.67;3.87;;;;;;;12.06;70.61;98667.89;1767700;80;21135;-77
2021/06/14 01:00:38;;;;;;;8.18;3.52;;;;;;;12.08;70.05;98667.06;1799345;79;21075;-77
2021/06/14 01:03:04;;;;;;;9.90;3.67;;;;;;;12.02;71.23;98669.52;1752634;80;21662;-77
2021/06/14 01:05:34;;;;;;;9.75;4.35;;;;;;;12.09;70.05;98663.27;1799395;79;21032;-77
2021/06/14 01:08:00;;;;;;;11.90;4.17;;;;;;;11.98;70.92;98663.02;1767971;80;20964;-77
2021/06/14 01:10:26;;;;;;;12.00;5.12;;;;;;;12.03;70.48;98666.25;1799769;79;21148;-77
2021/06/14 01:13:09;;;;;;;13.10;4.95;;;;;;;11.97;70.81;98659.22;1767799;80;21013;-77
2021/06/14 01:16:09;;;;;;;12.28;3.62;;;;;;;12.00;71.69;98658.66;1799325;79;21019;-77
2021/06/14 01:18:58;;;;;;;13.70;4.50;;;;;;;11.94;71.37;98663.81;1767908;80;20945;-77
2021/06/14 01:21:30;;;;;;;21.00;5.40;;;;;;;11.95;70.62;98664.08;1799446;79;21032;-77
2021/06/14 01:24:35;;;;;;;9.70;3.62;;;;;;;11.81;72.29;98664.65;1767975;80;21276;-77
2021/06/14 01:27:22;;;;;;;5.58;3.70;;;;;;;11.85;71.36;98667.63;1798965;79;20886;-77
2021/06/14 01:29:48;;;;;;;12.50;4.15;;;;;;;11.88;71.50;98671.17;1767404;80;20957;-77
2021/06/14 01:32:14;;;;;;;9.68;3.60;;;;;;;11.86;71.88;98670.61;1799506;79;21079;-77
2021/06/14 01:34:40;;;;;;;10.82;3.52;;;;;;;11.89;71.36;98663.84;1768002;80;20830;-77
2021/06/14 01:37:06;;;;;;;10.43;4.80;;;;;;;11.94;71.08;98671.42;1791163;79;21910;-77
2021/06/14 01:39:37;;;;;;;10.25;4.45;;;;;;;11.94;71.43;98670.06;1764716;80;21394;-77
2021/06/14 01:42:05;;;;;;;13.43;4.62;;;;;;;11.91;71.31;98663.83;1787977;80;20969;-78
2021/06/14 01:44:31;;;;;;;9.48;4.12;;;;;;;11.85;72.15;98669.80;1787578;79;20989;-78
2021/06/14 01:46:58;;;;;;;9.45;4.42;;;;;;;11.89;72.02;98670.62;1765088;81;21017;-78
2021/06/14 01:49:24;;;;;;;8.88;4.20;;;;;;;11.80;71.82;98669.81;1787545;80;21075;-78
2021/06/14 01:51:50;;;;;;;13.45;4.40;;;;;;;11.84;71.21;98674.14;1787819;80;21052;-78
2021/06/14 01:54:16;;;;;;;8.63;4.15;;;;;;;11.80;72.16;98669.81;1787745;80;20946;-78
2021/06/14 01:56:47;;;;;;;12.28;5.17;;;;;;;11.82;71.51;98670.89;1787836;80;21048;-78
2021/06/14 01:59:25;;;;;;;11.50;4.60;;;;;;;11.79;71.81;98670.88;1786251;80;21300;-78
2021/06/14 02:01:52;;;;;;;8.00;4.78;;;;;;;11.78;71.90;98672.47;1787940;79;21080;-77
2021/06/14 02:04:19;;;;;;;10.10;3.42;;;;;;;11.74;72.47;98663.26;1787490;80;21013;-77
2021/06/14 02:06:47;;;;;;;9.18;4.15;;;;;;;11.68;72.74;98663.78;1787856;80;21017;-77
2021/06/14 02:09:19;;;;;;;5.85;3.58;;;;;;;11.64;72.95;98662.72;1787840;80;20957;-77
2021/06/14 02:11:49;;;;;;;9.13;4.40;;;;;;;11.66;73.31;98664.61;1784974;80;21016;-77
2021/06/14 02:14:19;;;;;;;7.92;4.30;;;;;;;11.69;72.80;98669.48;1764836;80;21905;-78
2021/06/14 02:16:46;;;;;;;10.08;4.45;;;;;;;11.59;73.41;98675.73;1786781;80;21017;-77
2021/06/14 02:19:13;;;;;;;12.13;5.85;;;;;;;11.53;72.97;98664.59;1787545;79;21378;-77
2021/06/14 02:21:41;;;;;;;8.35;4.50;;;;;;;11.47;73.54;98669.76;1765033;80;21001;-77
2021/06/14 02:24:08;;;;;;;8.58;4.45;;;;;;;11.47;73.14;98673.83;1787624;80;20958;-77
2021/06/14 02:26:36;;;;;;;8.68;4.10;;;;;;;11.47;73.60;98671.11;1787703;80;21886;-77
2021/06/14 02:29:03;;;;;;;9.35;4.17;;;;;;;11.48;73.67;98671.38;1787603;79;21453;-77
2021/06/14 02:31:29;;;;;;;8.48;4.30;;;;;;;11.45;73.90;98674.64;1747725;81;21028;-77
2021/06/14 02:33:55;;;;;;;15.20;5.05;;;;;;;11.42;74.01;98676.52;1787516;80;21323;-77
2021/06/14 02:36:21;;;;;;;8.18;4.72;;;;;;;11.45;73.54;98674.64;1788157;80;21297;-77
2021/06/14 02:38:47;;;;;;;12.73;4.85;;;;;;;11.47;73.71;98677.90;1787643;80;21919;-77
2021/06/14 02:41:13;;;;;;;14.38;5.15;;;;;;;11.51;73.83;98676.80;1787682;80;21008;-77
2021/06/14 02:43:39;;;;;;;13.20;5.17;;;;;;;11.49;73.83;98672.20;1787595;80;20968;-77
2021/06/14 02:46:07;;;;;;;9.63;4.47;;;;;;;11.52;73.63;98674.36;1785050;79;20862;-77
2021/06/14 02:48:33;;;;;;;10.15;5.12;;;;;;;11.52;72.95;98676.53;1787739;80;20914;-77
2021/06/14 02:51:00;;;;;;;15.70;5.22;;;;;;;11.53;72.95;98672.72;1787955;80;22040;-77
2021/06/14 02:53:27;;;;;;;13.08;4.40;;;;;;;11.47;73.29;98667.05;1758812;80;20966;-77
2021/06/14 02:55:56;;;;;;;13.10;4.80;;;;;;;11.52;73.35;98681.14;1764989;80;20961;-77
2021/06/14 02:58:27;;;;;;;15.13;6.05;;;;;;;11.55;73.69;98681.44;1787704;80;21363;-78
2021/06/14 03:00:52;;;;;;;11.38;4.47;;;;;;;11.55;73.40;98676.55;1765713;81;20946;-77
2021/06/14 03:03:18;;;;;;;9.73;4.78;;;;;;;11.54;73.58;98685.23;1787768;80;21174;-77
2021/06/14 03:05:44;;;;;;;10.58;4.45;;;;;;;11.53;73.14;98680.87;1787905;80;20940;-77
2021/06/14 03:08:11;;;;;;;11.88;5.08;;;;;;;11.63;73.18;98681.45;1759122;80;21338;-77
2021/06/14 03:10:37;;;;;;;10.50;5.25;;;;;;;11.62;73.23;98678.98;1787872;80;21054;-77
2021/06/14 03:13:04;;;;;;;15.13;5.33;;;;;;;11.56;73.52;98680.89;1765029;80;20890;-77
2021/06/14 03:15:30;;;;;;;13.98;4.85;;;;;;;11.49;73.18;98679.80;1787997;80;21313;-77
2021/06/14 03:17:56;;;;;;;12.33;5.47;;;;;;;11.51;73.36;98680.88;1787748;79;20894;-77
2021/06/14 03:20:22;;;;;;;13.65;6.47;;;;;;;11.53;73.60;98683.58;1773362;80;21060;-77
2021/06/14 03:22:48;;;;;;;13.45;5.90;;;;;;;11.53;73.08;98683.58;1787937;80;21461;-77
2021/06/14 03:25:15;;;;;;;11.55;6.60;;;;;;;11.50;73.91;98680.06;1765101;81;21024;-77
2021/06/14 03:27:42;;;;;;;13.93;5.35;;;;;;;11.55;73.67;98685.51;1787862;80;21887;-77
2021/06/14 03:30:09;;;;;;;14.20;5.28;;;;;;;11.62;73.35;98681.15;1787468;80;21059;-77
2021/06/14 03:32:41;;;;;;;13.13;4.50;;;;;;;11.64;73.47;98684.44;1787770;80;21064;-77
2021/06/14 03:35:13;;;;;;;13.53;5.05;;;;;;;11.68;73.80;98688.77;1787605;79;20978;-77
2021/06/14 03:37:39;;;;;;;13.55;5.53;;;;;;;11.75;73.10;98691.48;1795084;79;21068;-77
2021/06/14 03:40:08;;;;;;;13.18;5.42;;;;;;;11.80;73.04;98688.82;1767816;80;21154;-77
2021/06/14 03:42:34;;;;;;;15.20;5.45;;;;;;;11.77;72.94;98692.02;1799455;79;21429;-77
2021/06/14 03:45:00;;;;;;;14.75;5.58;;;;;;;11.81;73.09;98686.91;1752607;81;21012;-77
2021/06/14 03:47:26;;;;;;;14.80;6.60;;;;;;;11.84;72.74;98686.36;1799507;79;20873;-77
2021/06/14 03:49:52;;;;;;;11.73;5.00;;;;;;;11.82;72.69;98687.19;1767834;80;21012;-77
2021/06/14 03:52:18;;;;;;;10.43;4.65;;;;;;;12.00;72.25;98685.82;1799352;79;22015;-77
2021/06/14 03:54:44;;;;;;;10.80;4.50;;;;;;;12.10;71.83;98685.26;1767711;80;20869;-77
2021/06/14 03:57:10;;;;;;;14.38;5.60;;;;;;;12.18;71.73;98674.94;1799345;79;21091;-77
2021/06/14 03:59:36;;;;;;;9.48;4.22;;;;;;;12.22;71.31;98684.15;1767722;80;20977;-77
2021/06/14 04:02:02;;;;;;;10.82;4.70;;;;;;;12.32;71.15;98685.52;1772482;79;21007;-77
2021/06/14 04:04:44;;;;;;;9.83;4.85;;;;;;;12.39;71.00;98692.81;1767864;80;21283;-77
2021/06/14 04:07:08;;;;;;;14.18;4.78;;;;;;;12.30;71.40;98689.03;1798573;79;21016;-77
2021/06/14 04:09:34;;;;;;;14.30;5.37;;;;;;;12.18;70.43;98693.41;1767872;80;20936;-77
2021/06/14 04:12:01;;;;;;;10.78;5.85;;;;;;;12.22;70.38;98685.51;1799386;79;20909;-77
2021/06/14 04:14:27;;;;;;;11.05;5.75;;;;;;;12.34;70.39;98683.33;1767874;80;20965;-77
2021/06/14 04:16:53;;;;;;;13.72;4.92;;;;;;;12.17;71.07;98683.63;1772455;79;21083;-77
2021/06/14 04:19:19;;;;;;;16.70;9.93;;;;;;;12.16;71.18;98682.55;1767851;80;21012;-77
2021/06/14 04:21:45;;;;;;;15.30;5.70;;;;;;;12.12;71.58;98683.63;1799245;79;21011;-77
2021/06/14 04:24:12;;;;;;;12.53;6.30;;;;;;;12.13;71.50;98683.37;1767771;80;21397;-77
2021/06/14 04:27:23;;;;;;;158.90;102.62;;;;;;;12.32;70.75;98685.52;1799547;79;20999;-77
2021/06/14 04:29:49;;;;;;;108.60;74.10;;;;;;;12.35;70.75;98684.95;1767757;81;21070;-77
2021/06/14 04:32:15;;;;;;;32.25;18.80;;;;;;;12.38;70.51;98687.92;1799372;79;20920;-77
2021/06/14 04:34:41;;;;;;;47.15;29.60;;;;;;;12.47;69.89;98682.74;1768045;81;20873;-77
2021/06/14 04:37:07;;;;;;;58.00;23.92;;;;;;;12.66;69.89;98685.16;1796043;79;20850;-77
2021/06/14 04:39:34;;;;;;;38.95;12.25;;;;;;;12.73;69.02;98679.40;1787651;80;20926;-77
2021/06/14 04:42:00;;;;;;;12.63;5.67;;;;;;;12.83;68.72;98686.19;1787890;80;21182;-77
2021/06/14 04:44:26;;;;;;;9.65;5.70;;;;;;;12.81;68.52;98693.78;1787625;80;20962;-77
2021/06/14 04:46:52;;;;;;;14.18;6.08;;;;;;;12.85;68.72;98694.06;1765117;80;20944;-77
2021/06/14 04:49:18;;;;;;;27.05;6.42;;;;;;;12.92;68.64;98692.67;1787729;80;21471;-77
2021/06/14 04:51:44;;;;;;;47.73;9.85;;;;;;;12.95;68.18;98694.02;1787819;80;21076;-77
2021/06/14 04:54:10;;;;;;;50.40;11.18;;;;;;;12.88;68.26;98686.14;1787675;80;21112;-77
2021/06/14 04:56:36;;;;;;;41.33;8.63;;;;;;;12.85;68.41;98689.43;1787565;80;20967;-77
2021/06/14 04:59:02;;;;;;;39.78;14.03;;;;;;;12.99;68.28;98680.14;1787691;80;20949;-77
2021/06/14 05:01:28;;;;;;;32.55;14.35;;;;;;;13.11;68.24;98686.60;1787959;80;21091;-77
2021/06/14 05:03:55;;;;;;;18.75;8.73;;;;;;;13.06;67.23;98692.87;1787870;79;20906;-77
2021/06/14 05:06:21;;;;;;;32.58;12.15;;;;;;;13.15;67.32;98685.74;1765141;81;22055;-77
2021/06/14 05:08:48;;;;;;;20.52;11.25;;;;;;;13.14;66.85;98696.37;1758800;80;20962;-77
2021/06/14 05:11:14;;;;;;;15.18;6.85;;;;;;;13.31;66.59;98688.42;1787912;80;21076;-77
2021/06/14 05:13:40;;;;;;;11.95;4.60;;;;;;;13.30;66.94;98685.44;1787799;79;20898;-77
2021/06/14 05:16:06;;;;;;;16.35;7.90;;;;;;;13.51;66.58;98697.30;1759157;80;21036;-77
2021/06/14 05:18:32;;;;;;;10.78;4.65;;;;;;;13.62;66.23;98691.77;1787671;80;21124;-77
2021/06/14 05:20:58;;;;;;;11.33;7.30;;;;;;;13.74;65.69;98690.30;1734171;80;20897;-77
2021/06/14 05:23:24;;;;;;;10.90;5.65;;;;;;;13.87;65.69;98689.41;1764872;80;20940;-77
2021/06/14 05:25:50;;;;;;;11.35;5.17;;;;;;;13.88;65.03;98687.76;1787864;80;20869;-77
2021/06/14 05:28:15;;;;;;;17.62;6.37;;;;;;;13.87;64.56;98686.69;1764990;80;20874;-77
2021/06/14 05:30:41;;;;;;;13.32;4.60;;;;;;;13.99;64.96;98687.12;1788052;80;21024;-77
2021/06/14 05:33:08;;;;;;;12.58;5.33;;;;;;;14.16;64.65;98687.51;1758921;80;21088;-77
2021/06/14 05:35:34;;;;;;;12.37;6.37;;;;;;;14.35;64.29;98684.31;1787762;80;20944;-77
2021/06/14 05:38:00;;;;;;;15.90;7.78;;;;;;;14.46;63.89;98683.72;1787726;79;20970;-77
2021/06/14 05:40:26;;;;;;;12.63;6.12;;;;;;;14.60;63.30;98693.37;1787595;80;21087;-77
2021/06/14 05:42:52;;;;;;;10.60;5.10;;;;;;;14.76;63.15;98690.73;1788295;79;21337;-77
2021/06/14 05:45:18;;;;;;;11.63;4.67;;;;;;;14.96;61.78;98688.33;1787572;79;21084;-77
2021/06/14 05:47:44;;;;;;;10.70;5.17;;;;;;;15.14;62.08;98685.38;1787497;80;21036;-77
2021/06/14 05:50:11;;;;;;;13.60;5.33;;;;;;;15.18;60.83;98691.30;1787638;80;20973;-77
2021/06/14 05:52:37;;;;;;;16.25;8.10;;;;;;;15.40;60.60;98687.20;1787887;80;21426;-77
2021/06/14 05:55:06;;;;;;;16.07;6.10;;;;;;;15.24;60.66;98692.87;1787430;80;21855;-77
2021/06/14 05:57:32;;;;;;;14.90;4.60;;;;;;;15.21;60.69;98691.26;1765208;81;21426;-77
2021/06/14 05:59:58;;;;;;;15.43;6.95;;;;;;;15.21;60.50;98690.73;1784579;80;21071;-77
2021/06/14 06:02:24;;;;;;;13.80;5.00;;;;;;;15.06;59.45;98695.02;1787859;80;20854;-77
2021/06/14 06:04:50;;;;;;;24.00;6.10;;;;;;;15.29;59.73;98692.52;1764945;80;21016;-77
2021/06/14 06:07:16;;;;;;;15.78;4.87;;;;;;;15.42;60.24;98689.88;1759137;80;21148;-77
2021/06/14 06:09:42;;;;;;;14.58;6.30;;;;;;;15.57;59.97;98688.05;1747430;81;20993;-77
2021/06/14 06:12:10;;;;;;;12.43;4.58;;;;;;;15.49;59.35;98690.34;1787795;80;21425;-77
2021/06/14 06:14:36;;;;;;;12.73;4.95;;;;;;;15.51;59.29;98685.94;1787688;80;21344;-77
2021/06/14 06:17:02;;;;;;;11.35;4.92;;;;;;;15.66;59.63;98685.75;1765270;81;21039;-77
2021/06/14 06:19:28;;;;;;;12.13;5.15;;;;;;;15.82;59.47;98684.14;1787702;80;22007;-77
2021/06/14 06:21:54;;;;;;;12.85;4.72;;;;;;;15.78;58.75;98690.74;1747920;81;21000;-77
2021/06/14 06:24:20;;;;;;;12.98;4.58;;;;;;;15.73;58.08;98678.55;1787843;80;20993;-77
2021/06/14 06:26:46;;;;;;;17.60;5.00;;;;;;;15.87;58.82;98684.86;1759114;80;20909;-77
2021/06/14 06:29:12;;;;;;;17.02;5.67;;;;;;;15.94;57.40;98674.92;1787813;79;20984;-77
2021/06/14 06:31:38;;;;;;;12.07;5.65;;;;;;;15.80;57.53;98677.59;1787720;80;21205;-77
2021/06/14 06:34:05;;;;;;;12.20;5.35;;;;;;;15.81;57.50;98675.14;1787642;80;20914;-77
2021/06/14 06:36:31;;;;;;;11.00;4.12;;;;;;;15.57;58.00;98679.86;1765378;81;20893;-77
2021/06/14 06:38:57;;;;;;;10.15;4.55;;;;;;;15.50;56.92;98676.13;1787708;80;21414;-77
2021/06/14 06:41:23;;;;;;;16.85;5.78;;;;;;;15.59;57.91;98682.54;1759245;80;21003;-77
2021/06/14 06:43:49;;;;;;;13.13;4.67;;;;;;;15.89;58.14;98675.80;1758967;80;21052;-77
2021/06/14 06:46:15;;;;;;;8.28;4.22;;;;;;;16.14;58.20;98674.56;1788333;80;21079;-77
2021/06/14 06:48:41;;;;;;;7.97;4.72;;;;;;;16.29;55.88;98678.95;1787974;80;20890;-77
2021/06/14 06:51:07;;;;;;;9.25;4.65;;;;;;;16.20;56.04;98680.20;1758823;80;21472;-77
2021/06/14 06:53:33;;;;;;;9.08;4.47;;;;;;;16.23;55.65;98683.70;1765241;80;20961;-77
2021/06/14 06:56:00;;;;;;;11.40;4.95;;;;;;;16.20;56.28;98680.77;1788450;80;21062;-77
2021/06/14 06:58:26;;;;;;;8.68;4.60;;;;;;;16.32;56.69;98678.34;1764936;80;20981;-77
2021/06/14 07:00:52;;;;;;;12.85;5.30;;;;;;;16.05;55.14;98680.46;1788043;80;21488;-77
2021/06/14 07:03:18;;;;;;;15.95;5.08;;;;;;;16.14;56.54;98680.59;1765146;80;21051;-77
2021/06/14 07:05:46;;;;;;;16.67;5.72;;;;;;;16.33;56.37;98679.99;1787587;80;21084;-77
2021/06/14 07:08:12;;;;;;;10.32;4.70;;;;;;;16.60;56.25;98680.02;1765165;80;20999;-77
2021/06/14 07:10:38;;;;;;;12.45;5.60;;;;;;;16.70;55.57;98680.97;1787588;80;21028;-77
2021/06/14 07:13:05;;;;;;;14.90;5.75;;;;;;;16.75;55.79;98672.11;1787942;80;21222;-77
2021/06/14 07:15:32;;;;;;;13.50;5.67;;;;;;;17.03;55.75;98672.90;1787628;80;21040;-77
2021/06/14 07:17:58;;;;;;;9.53;4.62;;;;;;;17.07;54.78;98673.89;1765102;81;21024;-77
2021/06/14 07:20:24;;;;;;;12.63;5.60;;;;;;;17.09;54.11;98674.42;1787741;80;21187;-77
2021/06/14 07:22:50;;;;;;;8.88;4.92;;;;;;;17.18;54.07;98669.03;1765128;80;21059;-77
2021/06/14 07:25:16;;;;;;;7.53;4.58;;;;;;;17.13;54.36;98671.87;1784935;80;20920;-77
2021/06/14 07:27:42;;;;;;;12.13;5.20;;;;;;;17.28;54.01;98666.63;1787996;79;21056;-77
2021/06/14 07:30:11;;;;;;;11.57;4.83;;;;;;;17.32;52.79;98658.03;1787687;80;21083;-77
2021/06/14 07:32:38;;;;;;;;;;;;;;;17.06;52.71;98660.52;1790342;80;21224;-77
2021/06/14 07:35:05;;;;;;;10.18;4.78;;;;;;;17.11;54.01;98670.00;1785046;79;20142;-77
2021/06/14 07:37:31;;;;;;;10.80;5.20;;;;;;;17.23;53.92;98653.84;1788458;79;21004;-77
2021/06/14 07:39:57;;;;;;;8.30;4.40;;;;;;;18.20;53.31;98659.76;1767756;80;20969;-77
2021/06/14 07:42:23;;;;;;;16.45;5.85;;;;;;;18.47;50.25;98660.16;1799347;79;21047;-77
2021/06/14 07:44:49;;;;;;;11.50;5.22;;;;;;;19.07;49.94;98654.91;1767911;80;20985;-77
2021/06/14 07:47:15;;;;;;;10.55;4.85;;;;;;;19.61;48.34;98654.67;1798805;79;20936;-77
2021/06/14 07:49:42;;;;;;;13.05;5.17;;;;;;;19.93;48.92;98662.41;1767901;80;20881;-77
2021/06/14 07:52:08;;;;;;;12.95;5.33;;;;;;;19.52;45.67;98657.95;1799348;79;21051;-77
2021/06/14 07:54:34;;;;;;;16.17;6.58;;;;;;;20.27;47.12;98660.73;1752881;81;20869;-77
2021/06/14 07:57:00;;;;;;;12.23;4.62;;;;;;;20.38;45.71;98670.81;1799146;79;21032;-77
2021/06/14 07:59:26;;;;;;;11.95;5.05;;;;;;;21.03;45.57;98663.53;1767884;80;21571;-78
2021/06/14 08:01:52;;;;;;;14.90;5.80;;;;;;;21.46;42.89;98668.55;1799470;79;21020;-78
2021/06/14 08:04:18;;;;;;;11.55;6.30;;;;;;;20.79;43.02;98664.13;1767963;80;21012;-77
2021/06/14 08:06:45;;;;;;;8.43;4.70;;;;;;;21.30;44.06;98666.96;1799380;79;21453;-78
2021/06/14 08:09:14;;;;;;;11.25;4.78;;;;;;;21.56;41.54;98673.66;1752859;81;21701;-77
2021/06/14 08:11:42;;;;;;;;;;;;;;;21.76;42.13;98676.17;1775545;79;20985;-78
2021/06/14 08:14:07;;;;;;;11.28;5.35;;;;;;;21.55;42.47;98672.86;1799457;79;20148;-78
2021/06/14 08:16:39;;;;;;;9.33;4.80;;;;;;;21.80;41.32;98672.42;1768174;81;20877;-78
2021/06/14 08:19:06;;;;;;;12.83;5.43;;;;;;;22.03;40.42;98664.56;1798267;79;21020;-78
2021/06/14 08:26:44;;;;;;;14.60;3.90;;;;;;;23.73;38.97;98642.31;1768590;81;21377;-77
2021/06/14 08:29:10;;;;;;;9.10;4.33;;;;;;;24.03;39.19;98652.47;1799186;79;21044;-77
2021/06/14 08:31:36;;;;;;;8.05;4.05;;;;;;;23.61;37.36;98650.67;1768065;81;20980;-77
2021/06/14 08:34:02;;;;;;;6.85;3.35;;;;;;;23.59;37.81;98650.19;1799321;79;21106;-77
2021/06/14 08:36:28;;;;;;;6.90;3.17;;;;;;;23.47;37.88;98666.22;1778595;80;21029;-77
2021/06/14 08:38:54;;;;;;;7.17;3.77;;;;;;;24.33;37.72;98661.78;1772614;79;20913;-77
2021/06/14 08:41:24;;;;;;;5.20;3.12;;;;;;;23.11;36.27;98667.66;1767861;81;21032;-77
2021/06/14 08:43:53;;;;;;;6.83;3.20;;;;;;;22.45;38.25;98664.48;1799153;79;21452;-78
2021/06/14 08:46:19;;;;;;;5.53;2.80;;;;;;;23.45;39.08;98671.30;1768112;81;21413;-78
2021/06/14 08:48:45;;;;;;;9.35;3.65;;;;;;;24.70;35.85;98664.56;1799486;79;21024;-78
2021/06/14 08:51:12;;;;;;;8.38;3.22;;;;;;;23.04;36.47;98659.37;1767866;81;21012;-78
2021/06/14 08:53:38;;;;;;;7.78;3.40;;;;;;;24.37;36.36;98666.86;1772296;79;20921;-78
2021/06/14 08:56:05;;;;;;;7.47;3.62;;;;;;;25.09;34.85;98659.19;1778365;80;20961;-78
2021/06/14 08:58:32;;;;;;;6.10;3.35;;;;;;;26.01;34.49;98659.03;1799199;79;21137;-78
2021/06/14 09:01:02;;;;;;;8.40;4.17;;;;;;;25.24;34.11;98666.67;1767854;81;21468;-78
2021/06/14 09:03:28;;;;;;;5.90;3.02;;;;;;;26.26;33.18;98642.85;1799144;79;20969;-78
2021/06/14 09:05:54;;;;;;;9.40;3.40;;;;;;;26.23;31.45;98659.43;1767916;81;20926;-78
2021/06/14 09:08:24;;;;;;;8.75;2.62;;;;;;;26.22;32.24;98641.97;1799360;79;21012;-78
2021/06/14 09:10:48;;;;;;;4.92;2.83;;;;;;;27.22;30.65;98643.70;1767698;80;21117;-78
2021/06/14 09:13:29;;;;;;;6.15;2.72;;;;;;;27.48;30.65;98642.28;1799270;79;20821;-78
2021/06/14 09:16:11;;;;;;;7.65;3.10;;;;;;;27.41;30.51;98646.94;1767804;81;20909;-78
2021/06/14 09:18:38;;;;;;;12.85;3.67;;;;;;;26.75;30.74;98652.44;1799302;79;21395;-79
2021/06/14 09:21:13;;;;;;;8.15;3.40;;;;;;;26.74;30.92;98653.63;1767943;81;20918;-79
2021/06/14 09:23:50;;;;;;;12.82;4.20;;;;;;;26.55;30.53;98646.96;1799463;79;21016;-79
2021/06/14 09:26:25;;;;;;;21.75;5.37;;;;;;;25.68;28.98;98646.22;1752754;81;20933;-78
2021/06/14 09:29:05;;;;;;;9.23;3.20;;;;;;;27.63;29.20;98640.49;1799389;79;21430;-79
2021/06/14 09:31:50;;;;;;;108.63;10.23;;;;;;;26.10;29.41;98631.03;1767809;81;21458;-77
2021/06/14 09:34:17;;;;;;;35.88;5.75;;;;;;;25.64;31.19;98641.16;1799149;79;20965;-78
2021/06/14 09:36:57;;;;;;;24.75;5.22;;;;;;;23.75;34.33;98643.34;1768098;81;21836;-78
2021/06/14 09:39:23;;;;;;;9.55;3.72;;;;;;;22.93;35.86;98632.56;1764169;80;20902;-78
2021/06/14 09:41:51;;;;;;;7.78;3.45;;;;;;;22.35;37.10;98640.08;1787913;80;21001;-78
2021/06/14 09:44:29;;;;;;;6.03;3.33;;;;;;;22.61;36.91;98638.39;1765189;80;20989;-78
2021/06/14 09:47:04;;;;;;;13.60;4.83;;;;;;;23.33;33.86;98629.86;1785200;80;21032;-78
2021/06/14 09:49:31;;;;;;;8.00;3.50;;;;;;;25.24;32.49;98628.44;1784652;80;21019;-76
2021/06/14 09:51:57;;;;;;;9.78;4.00;;;;;;;26.80;30.61;98616.00;1787685;80;21025;-76
2021/06/14 09:54:31;;;;;;;7.78;3.17;;;;;;;27.19;29.59;98621.62;1765104;80;21271;-76
2021/06/14 09:56:59;;;;;;;9.00;3.80;;;;;;;24.33;32.86;98631.33;1787508;80;20970;-78
2021/06/14 09:59:30;;;;;;;7.72;3.52;;;;;;;23.67;34.09;98634.61;1787513;80;21056;-77
2021/06/14 10:02:14;;;;;;;8.40;3.87;;;;;;;24.62;33.27;98639.22;1765002;81;21142;-78
2021/06/14 10:04:37;;;;;;;7.60;3.47;;;;;;;26.29;30.47;98621.86;1787166;80;20902;-78
2021/06/14 10:07:14;;;;;;;7.33;3.15;;;;;;;27.59;30.26;98618.75;1765742;81;20897;-78
2021/06/14 10:09:50;;;;;;;8.05;3.40;;;;;;;29.20;28.15;98616.98;1787776;80;21218;-79
2021/06/14 10:12:28;;;;;;;7.05;3.40;;;;;;;27.59;28.16;98624.32;1787780;80;21037;-77
2021/06/14 10:14:59;;;;;;;4.57;2.90;;;;;;;25.17;30.74;98629.66;1765029;80;21124;-77
2021/06/14 10:17:33;;;;;;;8.35;2.80;;;;;;;26.20;29.83;98624.88;1788014;80;20957;-77
2021/06/14 10:20:21;;;;;;;6.45;3.45;;;;;;;28.23;28.32;98623.71;1764620;80;21031;-78
2021/06/14 10:22:48;;;;;;;;;;;;;;;28.83;26.98;98624.08;1790417;80;21398;-78
2021/06/14 10:25:15;;;;;;;5.87;2.90;;;;;;;28.50;28.11;98618.82;1785038;79;20140;-77
2021/06/14 10:27:41;;;;;;;7.37;3.67;;;;;;;29.65;26.86;98611.46;1784914;80;21830;-77
2021/06/14 10:30:09;;;;;;;6.03;3.05;;;;;;;30.18;23.74;98606.69;1787389;80;21029;-77
2021/06/14 10:32:37;;;;;;;5.55;2.98;;;;;;;31.31;24.26;98605.71;1788124;79;21040;-77
2021/06/14 10:35:04;;;;;;;6.78;3.55;;;;;;;30.62;24.40;98591.55;1765095;80;20901;-78
2021/06/14 10:37:30;;;;;;;18.27;5.35;;;;;;;29.51;24.66;98601.65;1787841;80;21037;-78
2021/06/14 10:39:56;;;;;;;10.85;4.78;;;;;;;29.80;25.27;98608.73;1774308;80;21769;-77
2021/06/14 10:42:22;;;;;;;12.47;3.92;;;;;;;27.11;27.38;98607.39;1765424;80;20992;-77
2021/06/14 10:44:48;;;;;;;10.23;4.58;;;;;;;25.28;29.86;98612.66;1796475;80;20881;-77
2021/06/14 10:47:14;;;;;;;7.35;4.08;;;;;;;26.32;29.20;98603.05;1775542;80;21071;-77
2021/06/14 10:49:40;;;;;;;8.23;3.90;;;;;;;25.48;30.92;98607.38;1796661;80;20866;-77
2021/06/14 10:52:07;;;;;;;9.30;4.28;;;;;;;24.26;31.78;98614.49;1765385;80;21702;-77
2021/06/14 10:54:44;;;;;;;8.80;4.33;;;;;;;27.47;28.45;98601.72;1796537;79;20906;-77
2021/06/14 10:57:11;;;;;;;15.25;5.65;;;;;;;27.55;28.58;98596.45;1765290;81;20981;-77
2021/06/14 10:59:40;;;;;;;11.88;3.90;;;;;;;25.69;30.13;98595.91;1796646;80;20953;-77
2021/06/14 11:02:07;;;;;;;5.47;3.55;;;;;;;26.64;28.35;98594.70;1749741;81;20976;-78
2021/06/14 11:04:33;;;;;;;7.37;4.55;;;;;;;26.20;28.76;98590.75;1796871;80;21815;-78
2021/06/14 11:07:00;;;;;;;9.45;3.50;;;;;;;24.69;31.15;98595.62;1765158;80;21011;-78
2021/06/14 11:09:44;;;;;;;6.28;3.00;;;;;;;23.78;32.15;98585.94;1796963;79;20957;-78
2021/06/14 11:12:26;;;;;;;8.78;3.90;;;;;;;25.47;30.20;98586.36;1765169;80;21028;-77
2021/06/14 11:14:52;;;;;;;6.83;3.80;;;;;;;27.37;28.05;98583.50;1796721;79;20965;-77
2021/06/14 11:17:28;;;;;;;9.08;4.70;;;;;;;29.00;25.94;98578.81;1765613;80;21513;-77
2021/06/14 11:20:09;;;;;;;8.73;3.80;;;;;;;29.45;25.25;98578.05;1806809;79;20937;-77
2021/06/14 11:22:46;;;;;;;5.72;3.00;;;;;;;30.57;24.22;98566.78;1765552;80;21402;-78
2021/06/14 11:25:30;;;;;;;10.53;3.45;;;;;;;31.34;23.22;98561.50;1782167;79;20939;-78
2021/06/14 11:27:57;;;;;;;7.92;3.35;;;;;;;32.44;22.81;98562.33;1765398;80;20966;-79
2021/06/14 11:30:29;;;;;;;5.37;3.22;;;;;;;31.79;21.81;98553.33;1796945;79;21130;-79
2021/06/14 11:32:56;;;;;;;8.55;3.35;;;;;;;30.25;23.76;98562.56;1765371;80;20977;-79
2021/06/14 11:35:22;;;;;;;6.33;3.70;;;;;;;31.01;23.51;98552.36;1796788;79;21469;-79
2021/06/14 11:37:49;;;;;;;6.40;3.45;;;;;;;29.47;24.78;98561.70;1765417;80;21457;-79
2021/06/14 11:40:19;;;;;;;8.50;3.90;;;;;;;27.51;26.95;98545.50;1796387;79;20945;-79